Time;durP1;ratioP1;P1;durP2;ratioP2;P2;SDS_P1;SDS_P2;PMS_P1;PMS_P2;Temp;Humidity;BMP_temperature;BMP_pressure;BME280_temperature;BME280_humidity;BME280_pressure;Samples;Min_cycle;Max_cycle;Signal;HPM_P1;HPM_P2
2022/05/29 00:01:36;;;;;;;;;;;;;;;7.37;73.66;98794.97;5007501;28;19956;-75
2022/05/29 00:04:02;;;;;;;;;;;;;;;7.31;73.87;98787.91;4975808;28;19925;-76
2022/05/29 00:06:27;;;;;;;;;;;;;;;7.30;74.14;98789.00;4987723;28;20028;-77
2022/05/29 00:08:54;;;;;;;;;;;;;;;7.27;74.10;98798.53;4981126;28;19975;-75
2022/05/29 00:11:21;;;;;;;;;;;;;;;7.22;74.26;98790.38;4999469;28;19929;-75
2022/05/29 00:13:48;;;;;;;;;;;;;;;7.18;74.34;98789.31;4983851;28;19936;-75
2022/05/29 00:16:14;;;;;;;;;;;;;;;7.17;74.34;98798.56;5000742;28;19979;-75
2022/05/29 00:18:41;;;;;;;;;;;;;;;7.18;74.39;98795.56;4983437;28;19956;-74
2022/05/29 00:21:07;;;;;;;;;;;;;;;7.17;74.43;98799.34;4980754;28;19929;-75
2022/05/29 00:23:36;;;;;;;;;;;;;;;7.15;74.57;98798.81;4985443;28;20318;-74
2022/05/29 00:26:03;;;;;;;;;;;;;;;7.15;74.54;98801.53;4983715;28;19980;-75
2022/05/29 00:28:29;;;;;;;;;;;;;;;7.18;74.87;98808.34;4983965;28;19925;-75
2022/05/29 00:30:55;;;;;;;;;;;;;;;7.22;74.53;98812.13;4979527;28;20460;-75
2022/05/29 00:33:20;;;;;;;;;;;;;;;7.28;74.66;98819.19;5014288;28;19925;-75
2022/05/29 00:35:46;;;;;;;;;;;;;;;7.30;74.84;98813.47;5002206;28;19980;-74
2022/05/29 00:38:13;;;;;;;;;;;;;;;7.29;74.99;98812.66;4993537;28;19936;-75
2022/05/29 00:40:42;;;;;;;;;;;;;;;7.28;75.24;98815.66;4966904;28;19925;-75
2022/05/29 00:43:09;;;;;;;;;;;;;;;7.26;75.31;98817.84;4982779;28;20028;-75
2022/05/29 00:45:40;;;;;;;;;;;;;;;7.22;75.32;98815.69;4984162;28;19925;-75
2022/05/29 00:48:06;;;;;;;;;;;;;;;7.23;75.50;98811.88;4983248;28;19936;-74
2022/05/29 00:50:31;;;;;;;;;;;;;;;7.28;75.22;98819.19;4984608;28;19932;-75
2022/05/29 00:52:58;;;;;;;;;;;;;;;7.30;75.20;98816.19;5000659;28;19926;-75
2022/05/29 00:55:26;;;;;;;;;;;;;;;7.31;75.12;98812.38;4982268;28;19926;-75
2022/05/29 00:57:54;;;;;;;;;;;;;;;7.36;74.94;98820.53;4982990;28;20028;-76
2022/05/29 01:00:24;;;;;;;;;;;;;;;7.36;74.63;98825.97;4982911;28;20573;-75
2022/05/29 01:02:50;;;;;;;;;;;;;;;7.33;74.83;98829.22;4992804;28;20613;-74
2022/05/29 01:05:17;;;;;;;;;;;;;;;7.28;75.14;98826.53;4989579;28;19953;-75
2022/05/29 01:07:44;;;;;;;;;;;;;;;7.26;75.23;98820.56;4985165;28;19926;-74
2022/05/29 01:10:11;;;;;;;;;;;;;;;7.23;75.29;98819.19;4981502;28;20412;-75
2022/05/29 01:12:40;;;;;;;;;;;;;;;7.20;75.48;98820.56;4981702;28;20300;-74
2022/05/29 01:15:10;;;;;;;;;;;;;;;7.17;75.67;98812.16;4982169;28;19933;-75
2022/05/29 01:17:42;;;;;;;;;;;;;;;7.14;75.98;98813.50;4956111;28;1267607;-75
2022/05/29 01:20:29;;;;;;;;;;;;;;;7.17;75.94;98809.44;4988567;28;19926;-74
2022/05/29 01:23:04;;;;;;;;;;;;;;;7.18;75.80;98811.88;4976596;28;19926;-75
2022/05/29 01:25:48;;;;;;;;;;;;;;;7.19;75.80;98810.78;4965530;28;20361;-75
2022/05/29 01:28:25;;;;;;;;;;;;;;;7.18;75.92;98825.47;4964169;28;19932;-75
2022/05/29 01:30:55;;;;;;;;;;;;;;;7.17;75.83;98834.69;4980984;28;19930;-75
2022/05/29 01:33:24;;;;;;;;;;;;;;;7.16;76.09;98846.66;4983089;28;20306;-74
2022/05/29 01:35:53;;;;;;;;;;;;;;;7.15;76.22;98839.59;4982626;28;19926;-74
2022/05/29 01:38:23;;;;;;;;;;;;;;;7.16;76.32;98845.88;4981645;28;19932;-74
2022/05/29 01:40:52;;;;;;;;;;;;;;;7.16;76.27;98851.31;4984198;28;20322;-74
2022/05/29 01:43:22;;;;;;;;;;;;;;;7.15;76.24;98847.75;4983619;28;20332;-74
2022/05/29 01:45:54;;;;;;;;;;;;;;;7.15;76.31;98855.13;4984099;28;20416;-73
2022/05/29 01:48:27;;;;;;;;;;;;;;;7.11;76.24;98854.84;4983021;28;19925;-74
2022/05/29 01:50:55;;;;;;;;;;;;;;;7.09;76.41;98848.88;4983856;28;19925;-75
2022/05/29 01:53:23;;;;;;;;;;;;;;;7.07;76.40;98857.28;4985950;28;20308;-74
2022/05/29 01:55:50;;;;;;;;;;;;;;;7.11;76.27;98848.59;4985127;28;19930;-75
2022/05/29 01:58:19;;;;;;;;;;;;;;;7.08;76.45;98845.31;4982552;28;19929;-74
2022/05/29 02:00:48;;;;;;;;;;;;;;;7.07;76.45;98857.28;4982772;28;20175;-75
2022/05/29 02:03:16;;;;;;;;;;;;;;;7.05;76.37;98869.53;4985173;28;19926;-75
2022/05/29 02:05:45;;;;;;;;;;;;;;;7.06;76.47;98871.16;4967122;28;19926;-74
2022/05/29 02:08:13;;;;;;;;;;;;;;;7.08;76.72;98875.22;4984458;28;20005;-74
2022/05/29 02:10:41;;;;;;;;;;;;;;;7.10;76.46;98874.97;4982189;28;20411;-75
2022/05/29 02:13:10;;;;;;;;;;;;;;;7.12;76.49;98880.13;4982539;28;19981;-74
2022/05/29 02:15:38;;;;;;;;;;;;;;;7.19;76.34;98886.09;4965576;28;19980;-74
2022/05/29 02:18:07;;;;;;;;;;;;;;;7.24;76.01;98886.91;4965295;28;20308;-75
2022/05/29 02:20:36;;;;;;;;;;;;;;;7.28;75.78;98894.50;4981595;28;19926;-74
2022/05/29 02:23:05;;;;;;;;;;;;;;;7.29;75.77;98880.66;4986917;28;19925;-75
2022/05/29 02:25:32;;;;;;;;;;;;;;;7.33;75.75;98887.16;4986128;28;19926;-75
2022/05/29 02:28:01;;;;;;;;;;;;;;;7.36;75.85;98896.69;4984985;28;19968;-75
2022/05/29 02:30:32;;;;;;;;;;;;;;;7.37;76.03;98898.31;4985492;28;19957;-75
2022/05/29 02:33:02;;;;;;;;;;;;;;;7.40;75.89;98897.75;4984697;28;19925;-75
2022/05/29 02:35:34;;;;;;;;;;;;;;;7.45;75.99;98905.88;4987081;28;19926;-75
2022/05/29 02:38:05;;;;;;;;;;;;;;;7.51;75.92;98914.84;4987013;28;19933;-75
2022/05/29 02:40:32;;;;;;;;;;;;;;;7.50;75.99;98910.50;4986307;28;20032;-74
2022/05/29 02:43:01;;;;;;;;;;;;;;;7.56;76.03;98911.31;4985590;28;19932;-75
2022/05/29 02:45:31;;;;;;;;;;;;;;;7.61;75.80;98923.00;4969674;28;20377;-75
2022/05/29 02:48:01;;;;;;;;;;;;;;;7.64;75.67;98913.44;4985364;28;19933;-75
2022/05/29 02:50:31;;;;;;;;;;;;;;;7.65;75.47;98928.72;4985228;28;20385;-75
2022/05/29 02:52:59;;;;;;;;;;;;;;;7.73;75.24;98927.31;4984486;28;19926;-75
2022/05/29 02:55:25;;;;;;;;;;;;;;;7.85;75.05;98927.81;4993327;28;20113;-74
2022/05/29 02:57:53;;;;;;;;;;;;;;;8.01;74.64;98941.34;4987313;28;20188;-76
2022/05/29 03:00:19;;;;;;;;;;;;;;;8.15;74.10;98938.84;5005568;28;20030;-74
2022/05/29 03:02:53;;;;;;;;;;;;;;;8.29;73.23;98934.44;5003199;28;20289;-75
2022/05/29 03:05:23;;;;;;;;;;;;;;;8.52;72.63;98943.03;5003064;28;19932;-74
2022/05/29 03:07:58;;;;;;;;;;;;;;;8.64;71.79;98945.41;5019563;28;20282;-75
2022/05/29 03:10:26;;;;;;;;;;;;;;;8.76;71.50;98945.06;5004783;28;20414;-75
2022/05/29 03:12:59;;;;;;;;;;;;;;;8.83;71.21;98955.66;5004630;28;19953;-75
2022/05/29 03:15:30;;;;;;;;;;;;;;;8.87;70.93;98952.06;5003460;28;19932;-76
2022/05/29 03:18:04;;;;;;;;;;;;;;;8.84;71.03;98954.56;5003612;28;20413;-76
2022/05/29 03:20:37;;;;;;;;;;;;;;;8.76;71.14;98956.75;5002974;28;20426;-76
2022/05/29 03:23:08;;;;;;;;;;;;;;;8.67;71.33;98955.75;5019773;28;20289;-77
2022/05/29 03:25:37;;;;;;;;;;;;;;;8.59;71.39;98957.16;5019665;28;19968;-75
2022/05/29 03:28:08;;;;;;;;;;;;;;;8.46;72.13;98963.22;5002717;28;19926;-75
2022/05/29 03:30:35;;;;;;;;;;;;;;;8.38;72.46;98973.59;5004104;28;19932;-70
2022/05/29 03:33:02;;;;;;;;;;;;;;;8.36;72.50;98956.72;5016505;28;20459;-70
2022/05/29 03:35:29;;;;;;;;;;;;;;;8.32;72.46;98977.44;5003261;28;19987;-70
2022/05/29 03:37:55;;;;;;;;;;;;;;;8.49;72.53;98981.72;5003647;28;19933;-71
2022/05/29 03:40:24;;;;;;;;;;;;;;;8.67;71.90;98968.56;5003975;28;20120;-70
2022/05/29 03:42:49;;;;;;;;;;;;;;;8.81;71.20;98972.28;5001114;28;19925;-70
2022/05/29 03:45:15;;;;;;;;;;;;;;;8.97;70.73;98981.13;5018616;28;20490;-70
2022/05/29 03:47:41;;;;;;;;;;;;;;;9.05;70.60;98979.72;5003491;28;20404;-70
2022/05/29 03:50:09;;;;;;;;;;;;;;;9.08;70.17;98977.25;5003259;28;19960;-71
2022/05/29 03:52:35;;;;;;;;;;;;;;;9.02;70.31;98997.47;5002376;28;20420;-70
2022/05/29 03:55:00;;;;;;;;;;;;;;;9.05;69.93;98990.63;5003727;28;19925;-70
2022/05/29 03:57:28;;;;;;;;;;;;;;;9.14;69.69;98985.41;5004582;28;20361;-71
2022/05/29 03:59:53;;;;;;;;;;;;;;;9.14;69.29;98988.13;5000704;28;19925;-70
2022/05/29 04:02:19;;;;;;;;;;;;;;;9.05;69.89;99001.53;5003011;28;19925;-70
2022/05/29 04:04:45;;;;;;;;;;;;;;;9.03;70.57;98996.38;5019034;28;19925;-71
2022/05/29 04:07:11;;;;;;;;;;;;;;;9.11;70.72;98985.94;5004666;28;20466;-71
2022/05/29 04:12:21;;;;;;;;;;;;;;;8.84;71.69;99009.06;5001214;28;20034;-70
2022/05/29 04:14:49;;;;;;;;;;;;;;;8.70;72.49;99006.13;5018675;28;19929;-70
2022/05/29 04:17:15;;;;;;;;;;;;;;;8.54;74.96;99000.78;5004268;28;19948;-71
2022/05/29 04:19:41;;;;;;;;;;;;;;;8.33;74.76;99006.31;5003541;28;20487;-71
2022/05/29 04:22:08;;;;;;;;;;;;;;;8.12;75.79;99007.47;4985032;28;20874;-71
2022/05/29 04:24:34;;;;;;;;;;;;;;;8.08;76.21;99010.75;4983691;28;20339;-71
2022/05/29 04:27:00;;;;;;;;;;;;;;;8.16;75.85;99008.56;4982017;28;19925;-71
2022/05/29 04:29:26;;;;;;;;;;;;;;;8.28;75.12;99017.22;4982923;28;19933;-70
2022/05/29 04:34:38;;;;;;;;;;;;;;;8.47;73.77;99020.13;4962373;28;19926;-75
2022/05/29 04:37:05;;;;;;;;;;;;;;;8.50;73.51;99022.31;4962111;28;20234;-76
2022/05/29 04:39:36;;;;;;;;;;;;;;;8.57;73.58;99021.22;4966018;28;19926;-72
2022/05/29 04:42:02;;;;;;;;;;;;;;;8.63;72.84;99014.63;4963929;28;19925;-70
2022/05/29 04:44:29;;;;;;;;;;;;;;;8.71;72.87;99024.94;4984004;28;19925;-71
2022/05/29 04:46:57;;;;;;;;;;;;;;;8.78;72.36;99027.38;4981947;28;19931;-71
2022/05/29 04:49:23;;;;;;;;;;;;;;;8.79;72.47;99027.06;4998335;28;19932;-70
2022/05/29 04:51:48;;;;;;;;;;;;;;;8.90;72.42;99027.00;4982818;28;19925;-71
2022/05/29 04:54:14;;;;;;;;;;;;;;;9.09;70.96;99027.16;4984265;28;19929;-71
2022/05/29 04:56:40;;;;;;;;;;;;;;;9.14;71.27;99023.59;4983083;28;19926;-72
2022/05/29 04:59:06;;;;;;;;;;;;;;;9.21;70.47;99030.34;4982414;28;19929;-70
2022/05/29 05:01:32;;;;;;;;;;;;;;;9.24;70.33;99028.16;4982763;28;19925;-71
2022/05/29 05:03:59;;;;;;;;;;;;;;;9.25;69.77;99024.31;4983733;28;19937;-71
2022/05/29 05:06:27;;;;;;;;;;;;;;;9.41;69.97;99025.00;4983483;28;20536;-71
2022/05/29 05:08:53;;;;;;;;;;;;;;;9.55;69.26;99036.88;4981672;28;19930;-71
2022/05/29 05:11:19;;;;;;;;;;;;;;;9.62;69.27;99034.66;4983399;28;19932;-71
2022/05/29 05:13:45;;;;;;;;;;;;;;;9.82;69.31;99037.44;4984062;28;19970;-70
2022/05/29 05:16:11;;;;;;;;;;;;;;;10.02;68.58;99037.25;4985285;28;20332;-70
2022/05/29 05:18:36;;;;;;;;;;;;;;;10.20;67.37;99051.25;4982756;28;19925;-70
2022/05/29 05:21:05;;;;;;;;;;;;;;;10.21;67.15;99048.22;4981582;28;19925;-71
2022/05/29 05:23:31;;;;;;;;;;;;;;;10.25;66.53;99051.19;4982039;28;19925;-70
2022/05/29 05:25:57;;;;;;;;;;;;;;;10.09;67.12;99058.75;4982047;28;19972;-70
2022/05/29 05:28:23;;;;;;;;;;;;;;;10.17;67.52;99063.56;4982678;28;19972;-70
2022/05/29 05:30:48;;;;;;;;;;;;;;;10.25;67.15;99066.78;4980978;28;20110;-70
2022/05/29 05:33:15;;;;;;;;;;;;;;;10.12;67.00;99068.28;4981880;28;20021;-71
2022/05/29 05:35:41;;;;;;;;;;;;;;;10.14;67.41;99074.25;4982779;28;19937;-70
2022/05/29 05:38:08;;;;;;;;;;;;;;;10.30;67.70;99080.38;4998472;28;19929;-70
2022/05/29 05:40:33;;;;;;;;;;;;;;;10.41;67.34;99081.09;5002763;28;19948;-70
2022/05/29 05:42:59;;;;;;;;;;;;;;;10.52;67.24;99077.16;5017518;28;19926;-70
2022/05/29 05:45:25;;;;;;;;;;;;;;;10.63;67.09;99088.75;5001964;28;20019;-70
2022/05/29 05:47:51;;;;;;;;;;;;;;;10.60;66.68;99081.16;5000770;28;19964;-70
2022/05/29 05:50:17;;;;;;;;;;;;;;;10.54;66.24;99079.59;5004187;28;19929;-70
2022/05/29 05:52:43;;;;;;;;;;;;;;;10.49;66.11;99085.94;5017511;28;19925;-70
2022/05/29 05:55:11;;;;;;;;;;;;;;;10.60;66.08;99089.34;5017311;28;19925;-70
2022/05/29 05:57:37;;;;;;;;;;;;;;;10.77;65.64;99081.47;4998786;28;20464;-70
2022/05/29 06:00:04;;;;;;;;;;;;;;;10.94;64.67;99095.78;5005608;28;19925;-69
2022/05/29 06:02:34;;;;;;;;;;;;;;;10.97;64.16;99098.72;5006050;28;20368;-70
2022/05/29 06:04:59;;;;;;;;;;;;;;;10.77;63.72;99106.09;5020599;28;19925;-70
2022/05/29 06:07:25;;;;;;;;;;;;;;;10.60;64.53;99109.28;5004697;28;19933;-70
2022/05/29 06:09:51;;;;;;;;;;;;;;;10.62;64.73;99101.63;5003138;28;19929;-70
2022/05/29 06:12:21;;;;;;;;;;;;;;;10.81;64.36;99114.53;5003764;28;19925;-72
2022/05/29 06:14:47;;;;;;;;;;;;;;;10.85;64.09;99104.63;5004479;28;19961;-70
2022/05/29 06:17:13;;;;;;;;;;;;;;;10.96;62.94;99110.75;5005748;28;20462;-71
2022/05/29 06:19:39;;;;;;;;;;;;;;;10.91;62.09;99111.63;5004164;28;20458;-70
2022/05/29 06:22:07;;;;;;;;;;;;;;;10.95;61.62;99105.59;5003998;28;20475;-70
2022/05/29 06:24:32;;;;;;;;;;;;;;;10.95;61.15;99106.41;5021003;28;19932;-70
2022/05/29 06:26:59;;;;;;;;;;;;;;;10.86;61.27;99111.72;5021754;28;19925;-70
2022/05/29 06:29:26;;;;;;;;;;;;;;;10.86;61.29;99114.44;5018351;28;19953;-70
2022/05/29 06:31:53;;;;;;;;;;;;;;;10.84;60.98;99124.03;5003002;28;20396;-70
2022/05/29 06:34:19;;;;;;;;;;;;;;;10.78;61.22;99120.59;5020874;28;19933;-70
2022/05/29 06:36:45;;;;;;;;;;;;;;;10.91;60.17;99122.56;5004217;28;19925;-70
2022/05/29 06:39:11;;;;;;;;;;;;;;;10.95;60.58;99122.81;5006255;28;19929;-71
2022/05/29 06:41:39;;;;;;;;;;;;;;;11.19;60.25;99121.97;5003971;28;19935;-71
2022/05/29 06:44:04;;;;;;;;;;;;;;;11.52;57.58;99132.13;5001838;28;20308;-70
2022/05/29 06:46:32;;;;;;;;;;;;;;;11.33;56.03;99136.53;5005374;28;19925;-71
2022/05/29 06:48:57;;;;;;;;;;;;;;;10.98;56.64;99137.84;5020696;28;19929;-71
2022/05/29 06:51:23;;;;;;;;;;;;;;;10.78;57.84;99137.00;5002139;28;19971;-71
2022/05/29 06:53:49;;;;;;;;;;;;;;;10.60;60.34;99138.56;5004630;28;20425;-70
2022/05/29 06:56:15;;;;;;;;;;;;;;;10.60;61.08;99144.81;5003789;28;19925;-72
2022/05/29 06:58:41;;;;;;;;;;;;;;;10.71;60.70;99153.75;5004660;28;19961;-70
2022/05/29 07:09:23;;;;;;;;;;;;;;;12.37;54.25;99172.41;5002703;28;19929;-71
2022/05/29 07:11:51;;;;;;;;;;;;;;;12.13;55.08;99163.22;5003654;28;20417;-72
2022/05/29 07:14:17;;;;;;;;;;;;;;;12.23;54.18;99172.38;5001546;28;20290;-71
2022/05/29 07:16:46;;;;;;;;;;;;;;;12.68;53.49;99169.09;5000072;28;20017;-71
2022/05/29 07:19:13;;;;;;;;;;;;;;;12.73;53.49;99172.56;4984211;28;20064;-70
2022/05/29 07:21:40;;;;;;;;;;;;;;;12.50;54.23;99168.06;4984159;28;19926;-75
2022/05/29 07:24:05;;;;;;;;;;;;;;;12.55;53.92;99177.00;4984805;28;19929;-75
2022/05/29 07:26:32;;;;;;;;;;;;;;;12.55;53.84;99178.91;4984183;28;19940;-76
2022/05/29 07:28:57;;;;;;;;;;;;;;;12.80;52.91;99176.81;4980781;28;19926;-70
2022/05/29 07:31:23;;;;;;;;;;;;;;;13.14;52.12;99187.38;4964626;28;20064;-71
2022/05/29 07:33:49;;;;;;;;;;;;;;;13.14;51.80;99175.56;4984648;28;20031;-76
2022/05/29 07:36:17;;;;;;;;;;;;;;;12.97;52.78;99178.94;4984774;28;19925;-70
2022/05/29 07:38:43;;;;;;;;;;;;;;;12.73;53.64;99185.44;4965963;28;19929;-70
2022/05/29 07:43:53;;;;;;;;;;;;;;;12.26;55.35;99199.19;4966430;28;19937;-75
2022/05/29 07:46:19;;;;;;;;;;;;;;;12.18;55.95;99204.25;4990536;28;19925;-73
2022/05/29 07:48:46;;;;;;;;;;;;;;;12.00;56.63;99205.88;5002622;28;19925;-75
2022/05/29 07:51:11;;;;;;;;;;;;;;;11.84;56.51;99204.47;4996840;28;20044;-75
2022/05/29 07:53:39;;;;;;;;;;;;;;;11.81;56.13;99211.38;4988108;28;20445;-75
2022/05/29 07:56:06;;;;;;;;;;;;;;;11.90;55.94;99209.59;4987021;28;20321;-75
2022/05/29 07:58:33;;;;;;;;;;;;;;;12.28;56.00;99219.69;5003054;28;19932;-75
2022/05/29 08:00:59;;;;;;;;;;;;;;;12.70;54.64;99216.22;4981773;28;19964;-75
2022/05/29 08:03:25;;;;;;;;;;;;;;;13.01;54.26;99221.13;4983419;28;19965;-76
2022/05/29 08:05:51;;;;;;;;;;;;;;;13.04;53.67;99223.25;4985880;28;19929;-70
2022/05/29 08:08:18;;;;;;;;;;;;;;;13.10;53.25;99223.97;4984087;28;20312;-71
2022/05/29 08:10:45;;;;;;;;;;;;;;;13.28;52.16;99222.22;4966287;28;19925;-70
2022/05/29 08:13:11;;;;;;;;;;;;;;;13.25;51.37;99229.13;4997068;28;20048;-70
2022/05/29 08:15:37;;;;;;;;;;;;;;;13.39;51.42;99220.88;4998218;28;19925;-71
2022/05/29 08:18:03;;;;;;;;;;;;;;;14.10;50.21;99222.28;4992117;28;19926;-71
2022/05/29 08:20:30;;;;;;;;;;;;;;;14.73;48.31;99222.38;4980492;28;19925;-71
2022/05/29 08:22:56;;;;;;;;;;;;;;;15.39;46.83;99223.53;4642987;28;10000153;-70
2022/05/29 08:30:54;;;;;;;;;;;;;;;16.25;44.52;99225.88;4985327;28;19925;-70
2022/05/29 08:33:21;;;;;;;;;;;;;;;16.25;44.42;99236.09;4998285;28;20030;-76
2022/05/29 08:35:49;;;;;;;;;;;;;;;16.76;43.45;99227.19;4982763;28;19929;-70
2022/05/29 08:38:16;;;;;;;;;;;;;;;17.55;42.24;99235.91;4982271;28;20406;-70
2022/05/29 08:40:43;;;;;;;;;;;;;;;17.19;41.83;99230.94;4980908;28;20460;-70
2022/05/29 08:43:13;;;;;;;;;;;;;;;16.26;44.20;99226.66;4989380;28;19929;-70
2022/05/29 08:45:39;;;;;;;;;;;;;;;15.95;44.94;99235.94;4999072;28;19925;-69
2022/05/29 08:48:05;;;;;;;;;;;;;;;16.07;44.92;99230.59;4982657;28;19933;-71
2022/05/29 08:50:35;;;;;;;;;;;;;;;16.58;43.14;99235.53;4982921;28;19926;-70
2022/05/29 08:53:02;;;;;;;;;;;;;;;16.36;43.06;99234.59;4981162;28;19949;-70
2022/05/29 08:55:30;;;;;;;;;;;;;;;15.85;43.19;99226.03;4985289;28;20349;-69
2022/05/29 08:58:00;;;;;;;;;;;;;;;15.02;45.47;99239.50;4979979;28;19925;-71
2022/05/29 09:00:30;;;;;;;;;;;;;;;14.26;47.44;99244.75;4973764;28;20278;-70
2022/05/29 09:03:04;;;;;;;;;;;;;;;13.53;49.96;99242.84;4989805;28;19925;-71
2022/05/29 09:05:33;;;;;;;;;;;;;;;13.37;50.91;99239.59;5003287;28;20020;-70
2022/05/29 09:08:02;;;;;;;;;;;;;;;13.30;51.60;99250.19;5018217;28;19925;-70
2022/05/29 09:10:33;;;;;;;;;;;;;;;13.02;52.14;99250.19;4982793;28;19988;-71
2022/05/29 09:13:00;;;;;;;;;;;;;;;13.77;50.20;99257.44;4983849;28;19948;-71
2022/05/29 09:15:32;;;;;;;;;;;;;;;14.44;48.12;99259.41;4984295;28;20080;-77
2022/05/29 09:18:01;;;;;;;;;;;;;;;15.09;46.73;99263.81;4974383;28;20367;-77
2022/05/29 09:20:30;;;;;;;;;;;;;;;14.52;47.19;99260.59;4987057;28;19933;-78
2022/05/29 09:22:57;;;;;;;;;;;;;;;13.62;49.75;99264.91;4996685;28;19932;-77
2022/05/29 09:25:26;;;;;;;;;;;;;;;13.08;51.63;99281.88;4990605;28;19925;-77
2022/05/29 09:27:52;;;;;;;;;;;;;;;12.66;57.46;99300.22;4984468;28;19925;-77
2022/05/29 09:30:18;;;;;;;;;;;;;;;12.12;59.69;99289.56;4983575;28;20356;-77
2022/05/29 09:32:49;;;;;;;;;;;;;;;11.95;60.91;99285.41;4984712;28;19926;-78
2022/05/29 09:35:21;;;;;;;;;;;;;;;12.50;60.38;99284.03;4986488;28;19941;-76
2022/05/29 09:37:52;;;;;;;;;;;;;;;14.04;54.01;99292.28;4989268;28;19930;-75
2022/05/29 09:40:21;;;;;;;;;;;;;;;14.35;54.13;99290.72;4986776;28;19926;-76
2022/05/29 09:42:48;;;;;;;;;;;;;;;15.73;49.39;99290.06;4970173;28;19930;-77
2022/05/29 09:45:22;;;;;;;;;;;;;;;16.43;46.08;99312.16;4983965;28;19929;-77
2022/05/29 09:50:43;;;;;;;;;;;;;;;17.80;43.10;99298.84;4988102;28;19932;-74
2022/05/29 09:53:14;;;;;;;;;;;;;;;18.44;40.97;99294.13;4979355;28;20347;-76
2022/05/29 09:55:48;;;;;;;;;;;;;;;18.94;39.80;99297.81;4980102;28;19925;-70
2022/05/29 09:58:17;;;;;;;;;;;;;;;19.11;39.79;99299.63;4977978;28;19933;-70
2022/05/29 10:00:52;;;;;;;;;;;;;;;19.39;38.65;99295.34;4999502;28;19948;-69
2022/05/29 10:03:32;;;;;;;;;;;;;;;19.75;37.61;99293.72;4986381;28;20349;-69
2022/05/29 10:06:09;;;;;;;;;;;;;;;19.95;37.48;99302.25;4984661;28;19929;-70
2022/05/29 10:08:35;;;;;;;;;;;;;;;18.61;40.04;99306.19;4987018;28;19965;-70
2022/05/29 10:11:12;;;;;;;;;;;;;;;17.32;43.15;99311.94;4998917;28;19925;-69
2022/05/29 10:13:39;;;;;;;;;;;;;;;16.45;44.06;99301.59;5016596;28;20023;-70
2022/05/29 10:16:04;;;;;;;;;;;;;;;16.36;45.08;99300.00;4997807;28;19961;-70
2022/05/29 10:18:32;;;;;;;;;;;;;;;16.55;44.10;99302.41;5006156;28;19960;-71
2022/05/29 10:21:06;;;;;;;;;;;;;;;16.73;44.33;99305.97;5004227;28;20426;-70
2022/05/29 10:23:34;;;;;;;;;;;;;;;17.94;41.05;99299.38;5002924;28;19935;-70
2022/05/29 10:26:04;;;;;;;;;;;;;;;19.02;38.78;99295.34;5004878;28;20490;-70
2022/05/29 10:28:31;;;;;;;;;;;;;;;19.48;38.37;99298.00;5003679;28;20037;-70
2022/05/29 10:30:58;;;;;;;;;;;;;;;20.15;36.93;99294.09;5021737;28;20035;-69
2022/05/29 10:33:26;;;;;;;;;;;;;;;20.27;35.75;99285.72;5018941;28;19929;-70
2022/05/29 10:35:55;;;;;;;;;;;;;;;20.06;35.41;99289.50;5019208;28;19925;-69
2022/05/29 10:38:26;;;;;;;;;;;;;;;18.27;38.47;99287.59;5020833;28;20031;-69
2022/05/29 10:40:54;;;;;;;;;;;;;;;18.10;40.28;99291.31;4668758;28;9999909;-70
2022/05/29 10:43:38;;;;;;;;;;;;;;;19.37;37.70;99308.75;5000184;28;19925;-76
2022/05/29 10:46:04;;;;;;;;;;;;;;;19.60;36.67;99289.69;5000117;28;19932;-76
2022/05/29 10:48:42;;;;;;;;;;;;;;;19.51;37.14;99319.47;5000833;28;20277;-69
2022/05/29 10:51:10;;;;;;;;;;;;;;;19.58;36.54;99299.47;5003652;28;19979;-69
2022/05/29 10:53:44;;;;;;;;;;;;;;;19.45;37.22;99298.69;4999369;28;20425;-70
2022/05/29 10:56:17;;;;;;;;;;;;;;;19.98;36.99;99319.00;4992562;28;19948;-70
2022/05/29 10:58:48;;;;;;;;;;;;;;;19.95;36.93;99324.44;4995619;28;20420;-71
2022/05/29 11:04:16;;;;;;;;;;;;;;;20.90;35.67;99317.59;4999537;28;19926;-70
2022/05/29 11:06:59;;;;;;;;;;;;;;;20.96;36.03;99340.38;5000364;28;19926;-70
2022/05/29 11:09:39;;;;;;;;;;;;;;;21.01;35.05;99326.22;5002910;28;19932;-70
2022/05/29 11:12:13;;;;;;;;;;;;;;;21.42;34.37;99328.81;5000547;28;19968;-70
2022/05/29 11:14:48;;;;;;;;;;;;;;;21.89;33.41;99321.59;5019415;28;19968;-70
2022/05/29 11:17:18;;;;;;;;;;;;;;;21.86;32.18;99339.03;4999986;28;19984;-70
2022/05/29 11:19:55;;;;;;;;;;;;;;;20.85;33.63;99339.28;5000169;28;19926;-70
2022/05/29 11:22:24;;;;;;;;;;;;;;;19.64;34.37;99353.56;4999977;28;19929;-71
2022/05/29 11:24:59;;;;;;;;;;;;;;;18.39;36.94;99346.91;5014917;28;20357;-70
2022/05/29 11:27:40;;;;;;;;;;;;;;;17.41;38.98;99348.66;5016612;28;19975;-70
2022/05/29 11:30:08;;;;;;;;;;;;;;;16.61;39.49;99359.03;5020181;28;19935;-70
2022/05/29 11:32:41;;;;;;;;;;;;;;;16.25;41.27;99335.38;5011571;28;19932;-70
2022/05/29 11:35:16;;;;;;;;;;;;;;;16.05;41.42;99347.84;5021183;28;19929;-71
2022/05/29 11:37:50;;;;;;;;;;;;;;;15.53;42.69;99347.41;5034895;28;19925;-70
2022/05/29 11:40:17;;;;;;;;;;;;;;;15.30;43.88;99352.19;5005143;28;19925;-70
2022/05/29 11:42:47;;;;;;;;;;;;;;;14.81;43.84;99361.13;5003978;28;19925;-70
2022/05/29 11:45:14;;;;;;;;;;;;;;;14.30;45.04;99357.66;5004847;28;19929;-70
2022/05/29 11:53:19;;;;;;;;;;;;;;;12.81;49.57;99378.69;5013597;28;19964;-70
2022/05/29 11:55:47;;;;;;;;;;;;;;;12.13;56.25;99378.88;4985357;28;20183;-77
2022/05/29 11:58:17;;;;;;;;;;;;;;;11.35;59.52;99388.00;5025756;28;20416;-77
2022/05/29 12:00:45;;;;;;;;;;;;;;;10.86;59.76;99368.00;5003693;28;19987;-76
2022/05/29 12:03:20;;;;;;;;;;;;;;;10.72;59.67;99359.63;5000357;28;19925;-77
2022/05/29 12:05:50;;;;;;;;;;;;;;;10.82;59.56;99362.28;5003792;28;20345;-77
2022/05/29 12:08:19;;;;;;;;;;;;;;;10.99;59.68;99353.63;5002066;28;19968;-77
2022/05/29 12:10:51;;;;;;;;;;;;;;;11.23;59.15;99371.16;4998636;28;19991;-77
2022/05/29 12:13:21;;;;;;;;;;;;;;;11.50;58.97;99362.41;5000721;28;19932;-77
2022/05/29 12:15:53;;;;;;;;;;;;;;;11.87;58.76;99357.31;5000572;28;20020;-77
2022/05/29 12:18:20;;;;;;;;;;;;;;;12.63;55.70;99365.50;5000579;28;20055;-78
2022/05/29 12:20:49;;;;;;;;;;;;;;;13.75;53.49;99362.16;5005248;28;19979;-77
2022/05/29 12:23:24;;;;;;;;;;;;;;;15.02;50.38;99364.16;5008106;28;20023;-70
2022/05/29 12:25:57;;;;;;;;;;;;;;;16.58;45.65;99374.31;5020555;28;19925;-69
2022/05/29 12:28:28;;;;;;;;;;;;;;;18.14;42.89;99382.75;5016970;28;20446;-69
2022/05/29 12:30:56;;;;;;;;;;;;;;;19.31;39.60;99385.75;4995986;28;19925;-72
2022/05/29 12:33:23;;;;;;;;;;;;;;;20.19;37.34;99381.84;4981675;28;19932;-74
2022/05/29 12:35:52;;;;;;;;;;;;;;;21.29;35.47;99382.91;5008835;28;19929;-73
2022/05/29 12:38:28;;;;;;;;;;;;;;;22.01;33.14;99381.06;5005760;28;19953;-69
2022/05/29 12:41:12;;;;;;;;;;;;;;;22.17;32.53;99381.03;5005242;28;19956;-70
2022/05/29 12:43:56;;;;;;;;;;;;;;;23.13;31.28;99386.16;5001795;28;19929;-74
2022/05/29 12:46:31;;;;;;;;;;;;;;;23.85;29.01;99386.59;5003930;28;19925;-70
2022/05/29 12:49:14;;;;;;;;;;;;;;;23.82;28.34;99384.56;5027665;28;20113;-74
2022/05/29 12:51:56;;;;;;;;;;;;;;;24.18;26.11;99390.69;4991913;28;19933;-75
2022/05/29 12:54:40;;;;;;;;;;;;;;;24.06;26.46;99388.94;4999620;28;20014;-73
2022/05/29 12:57:29;;;;;;;;;;;;;;;23.54;26.37;99390.50;5003332;28;19925;-72
2022/05/29 13:00:10;;;;;;;;;;;;;;;23.65;26.67;99400.63;4984009;28;20381;-73
2022/05/29 13:02:48;;;;;;;;;;;;;;;23.99;26.31;99404.75;4997551;28;19932;-73
2022/05/29 13:05:21;;;;;;;;;;;;;;;24.00;26.09;99397.97;5002201;28;19926;-73
2022/05/29 13:08:03;;;;;;;;;;;;;;;24.33;25.66;99390.88;4994584;28;20350;-72
2022/05/29 13:10:32;;;;;;;;;;;;;;;24.85;25.62;99390.38;5005027;28;20479;-72
2022/05/29 13:13:02;;;;;;;;;;;;;;;25.40;24.81;99411.28;5005956;28;20365;-72
2022/05/29 13:15:31;;;;;;;;;;;;;;;24.73;25.65;99402.56;5008159;28;20384;-72
2022/05/29 13:18:02;;;;;;;;;;;;;;;24.52;25.49;99391.94;5002188;28;20312;-72
2022/05/29 13:20:28;;;;;;;;;;;;;;;24.66;26.13;99396.88;5000663;28;20020;-72
2022/05/29 13:22:59;;;;;;;;;;;;;;;24.58;26.28;99393.19;4999359;28;19979;-73
2022/05/29 13:25:27;;;;;;;;;;;;;;;25.47;25.56;99394.56;5000682;28;20393;-73
2022/05/29 13:27:54;;;;;;;;;;;;;;;26.64;24.23;99396.94;4968666;28;20412;-72
2022/05/29 13:30:52;;;;;;;;;;;;;;;26.94;23.62;99406.28;5002928;28;19925;-73
2022/05/29 13:33:37;;;;;;;;;;;;;;;26.86;23.43;99400.66;5003393;28;19932;-72